createdAt,value
2023-11-18T00:00:35.301Z,17.70
2023-11-18T00:03:03.593Z,17.30
2023-11-18T00:05:31.373Z,19.23
2023-11-18T00:07:59.785Z,18.75
2023-11-18T00:10:27.737Z,17.13
2023-11-18T00:12:57.503Z,17.90
2023-11-18T00:15:25.154Z,18.25
2023-11-18T00:17:54.590Z,18.08
2023-11-18T00:20:25.140Z,18.57
2023-11-18T00:22:54.109Z,19.02
2023-11-18T00:25:22.523Z,18.27
2023-11-18T00:27:50.215Z,18.15
2023-11-18T00:30:20.545Z,18.27
2023-11-18T00:32:49.125Z,20.70
2023-11-18T00:35:17.551Z,20.05
2023-11-18T00:37:45.357Z,20.90
2023-11-18T00:40:13.562Z,19.95
2023-11-18T00:42:41.447Z,18.27
2023-11-18T00:45:09.844Z,17.67
2023-11-18T00:47:39.640Z,16.98
2023-11-18T00:50:09.599Z,18.10
2023-11-18T00:52:39.909Z,17.70
2023-11-18T00:55:09.918Z,16.77
2023-11-18T00:57:38.956Z,16.60
2023-11-18T01:00:08.547Z,17.58
2023-11-18T01:02:36.262Z,16.67
2023-11-18T01:05:05.939Z,16.75
2023-11-18T01:07:34.751Z,17.63
2023-11-18T01:10:03.589Z,16.98
2023-11-18T01:12:31.376Z,17.70
2023-11-18T01:14:59.361Z,18.05
2023-11-18T01:17:27.601Z,17.88
2023-11-18T01:19:55.377Z,17.73
2023-11-18T01:22:25.095Z,18.23
2023-11-18T01:24:53.582Z,17.48
2023-11-18T01:27:22.138Z,17.98
2023-11-18T01:29:49.859Z,17.60
2023-11-18T01:32:18.714Z,18.42
2023-11-18T01:34:51.280Z,18.17
2023-11-18T01:37:23.615Z,19.88
2023-11-18T01:39:52.696Z,18.55
2023-11-18T01:42:20.642Z,19.75
2023-11-18T01:44:48.489Z,19.33
2023-11-18T01:47:17.628Z,18.73
2023-11-18T01:49:45.638Z,17.80
2023-11-18T01:52:13.543Z,18.47
2023-11-18T01:54:46.643Z,18.05
2023-11-18T01:57:17.180Z,17.90
2023-11-18T01:59:45.635Z,17.30
2023-11-18T02:02:14.293Z,17.50
2023-11-18T02:04:42.677Z,16.90
2023-11-18T02:07:10.658Z,16.60
2023-11-18T02:09:38.728Z,17.05
2023-11-18T02:12:12.652Z,15.83
2023-11-18T02:14:42.273Z,16.77
2023-11-18T02:17:12.667Z,17.20
2023-11-18T02:19:41.434Z,16.80
2023-11-18T02:22:09.677Z,15.75
2023-11-18T02:24:38.665Z,16.13
2023-11-18T02:27:08.701Z,16.98
2023-11-18T02:29:38.426Z,15.50
2023-11-18T02:32:13.583Z,16.05
2023-11-18T02:34:44.733Z,15.80
2023-11-18T02:37:13.980Z,15.82
2023-11-18T02:39:43.885Z,16.80
2023-11-18T02:42:14.902Z,16.70
2023-11-18T02:44:43.685Z,18.20
2023-11-18T02:47:11.425Z,19.67
2023-11-18T02:49:40.087Z,17.38
2023-11-18T02:52:11.774Z,18.35
2023-11-18T02:54:39.512Z,18.33
2023-11-18T02:57:07.190Z,18.98
2023-11-18T02:59:36.713Z,17.43
2023-11-18T03:02:04.691Z,16.88
2023-11-18T03:04:32.723Z,17.20
2023-11-18T03:07:01.061Z,18.73
2023-11-18T03:09:29.729Z,18.17
2023-11-18T03:12:00.589Z,15.70
2023-11-18T03:14:29.770Z,17.75
2023-11-18T03:16:59.798Z,17.13
2023-11-18T03:19:27.568Z,16.67
2023-11-18T03:21:55.740Z,16.80
2023-11-18T03:24:23.417Z,16.67
2023-11-18T03:26:52.752Z,16.98
2023-11-18T03:29:20.382Z,17.67
2023-11-18T03:31:49.836Z,16.50
2023-11-18T03:34:20.944Z,16.23
2023-11-18T03:36:49.886Z,16.35
2023-11-18T03:39:17.587Z,17.08
2023-11-18T03:41:46.755Z,15.80
2023-11-18T03:44:14.441Z,16.27
2023-11-18T03:46:42.789Z,17.08
2023-11-18T03:49:10.680Z,16.38
2023-11-18T03:51:39.773Z,15.20
2023-11-18T03:54:09.608Z,15.98
2023-11-18T03:56:37.755Z,15.10
2023-11-18T03:59:06.119Z,16.10
2023-11-18T04:01:34.850Z,16.00
2023-11-18T04:04:02.659Z,16.40
2023-11-18T04:06:30.545Z,16.15
2023-11-18T04:09:00.763Z,16.20
2023-11-18T04:11:28.416Z,16.52
2023-11-18T04:13:56.836Z,15.47
2023-11-18T04:16:24.582Z,17.02
2023-11-18T04:18:52.822Z,16.17
2023-11-18T04:21:20.500Z,16.27
2023-11-18T04:23:48.813Z,16.33
2023-11-18T04:26:18.106Z,17.15
2023-11-18T04:28:45.831Z,16.95
2023-11-18T04:31:14.100Z,16.73
2023-11-18T04:33:42.811Z,17.00
2023-11-18T04:38:53.907Z,17.02
2023-11-18T04:41:24.263Z,17.13
2023-11-18T04:43:52.886Z,17.13
2023-11-18T04:46:20.637Z,17.45
2023-11-18T04:48:48.933Z,15.88
2023-11-18T04:51:18.524Z,15.88
2023-11-18T04:53:46.820Z,16.50
2023-11-18T04:56:17.714Z,17.23
2023-11-18T04:58:48.952Z,17.00
2023-11-18T05:01:16.847Z,16.33
2023-11-18T05:03:44.963Z,16.77
2023-11-18T05:06:12.668Z,17.30
2023-11-18T05:08:40.947Z,17.83
2023-11-18T05:11:09.093Z,16.38
2023-11-18T05:13:36.786Z,16.13
2023-11-18T05:16:05.889Z,16.87
2023-11-18T05:18:36.815Z,16.45
2023-11-18T05:21:06.942Z,15.97
2023-11-18T05:23:36.133Z,14.90
2023-11-18T05:26:05.932Z,15.15
2023-11-18T05:28:34.188Z,15.38
2023-11-18T05:31:04.091Z,15.82
2023-11-18T05:33:35.516Z,15.50
2023-11-18T05:36:07.010Z,14.75
2023-11-18T05:38:36.141Z,15.82
2023-11-18T05:41:05.169Z,14.68
2023-11-18T05:43:41.113Z,14.48
2023-11-18T05:46:22.246Z,15.82
2023-11-18T05:48:51.701Z,15.48
2023-11-18T05:51:23.223Z,15.00
2023-11-18T05:53:51.993Z,16.13
2023-11-18T05:56:29.929Z,14.13
2023-11-18T05:58:57.757Z,14.63
2023-11-18T06:01:28.392Z,14.65
2023-11-18T06:03:58.983Z,14.85
2023-11-18T06:06:27.107Z,14.07
2023-11-18T06:08:55.958Z,14.67
2023-11-18T06:11:24.349Z,13.88
2023-11-18T06:13:54.159Z,13.40
2023-11-18T06:16:23.182Z,13.77
2023-11-18T06:18:52.972Z,14.38
2023-11-18T06:21:25.840Z,14.47
2023-11-18T06:23:56.339Z,12.48
2023-11-18T06:26:25.567Z,13.93
2023-11-18T06:28:53.980Z,13.77
2023-11-18T06:31:22.015Z,12.32
2023-11-18T06:33:50.975Z,13.57
2023-11-18T06:36:19.196Z,13.80
2023-11-18T06:38:50.911Z,13.15
2023-11-18T06:41:20.035Z,13.30
2023-11-18T06:43:58.583Z,12.80
2023-11-18T06:46:27.984Z,12.68
2023-11-18T06:48:58.368Z,13.40
2023-11-18T06:51:29.038Z,13.70
2023-11-18T06:53:58.782Z,13.43
2023-11-18T06:56:26.921Z,14.18
2023-11-18T06:58:54.724Z,13.40
2023-11-18T07:01:23.985Z,12.45
2023-11-18T07:03:54.311Z,12.52
2023-11-18T07:06:24.133Z,13.40
2023-11-18T07:08:51.883Z,12.77
2023-11-18T07:11:22.008Z,13.50
2023-11-18T07:13:50.231Z,13.27
2023-11-18T07:16:19.045Z,13.35
2023-11-18T07:18:46.847Z,12.93
2023-11-18T07:21:16.010Z,12.93
2023-11-18T07:23:44.447Z,12.80
2023-11-18T07:26:13.083Z,13.52
2023-11-18T07:28:42.310Z,13.25
2023-11-18T07:31:10.348Z,12.73
2023-11-18T07:33:40.369Z,14.02
2023-11-18T07:38:41.025Z,13.60
2023-11-18T07:41:09.788Z,13.27
2023-11-18T07:43:39.124Z,13.30
2023-11-18T07:46:09.119Z,13.13
2023-11-18T07:48:38.031Z,14.32
2023-11-18T07:51:08.014Z,12.87
2023-11-18T07:53:39.054Z,13.15
2023-11-18T07:56:09.076Z,12.80
2023-11-18T07:58:39.094Z,13.55
2023-11-18T08:01:10.114Z,12.60
2023-11-18T08:03:39.159Z,12.50
2023-11-18T08:06:08.244Z,12.13
2023-11-18T08:08:38.057Z,12.65
2023-11-18T08:11:06.852Z,12.32
2023-11-18T08:13:38.106Z,13.10
2023-11-18T08:16:09.649Z,11.70
2023-11-18T08:18:38.370Z,12.77
2023-11-18T08:21:08.192Z,12.25
2023-11-18T08:23:37.239Z,12.32
2023-11-18T08:26:06.787Z,12.88
2023-11-18T08:28:35.120Z,12.75
2023-11-18T08:31:02.988Z,11.55
2023-11-18T08:33:32.178Z,12.40
2023-11-18T08:36:02.093Z,13.00
2023-11-18T08:38:30.688Z,12.35
2023-11-18T08:40:59.114Z,11.88
2023-11-18T08:43:29.750Z,12.10
2023-11-18T08:45:58.176Z,11.50
2023-11-18T08:48:25.856Z,11.65
2023-11-18T08:50:55.216Z,12.57
2023-11-18T08:53:27.470Z,13.07
2023-11-18T08:55:56.507Z,12.48
2023-11-18T08:58:29.995Z,12.87
2023-11-18T09:01:07.520Z,12.45
2023-11-18T09:03:44.088Z,12.43
2023-11-18T09:06:20.408Z,12.27
2023-11-18T09:08:54.149Z,12.57
2023-11-18T09:11:25.237Z,12.20
2023-11-18T09:13:55.118Z,12.77
2023-11-18T09:16:23.510Z,13.30
2023-11-18T09:18:52.357Z,12.57
2023-11-18T09:21:26.241Z,13.33
2023-11-18T09:23:55.145Z,13.23
2023-11-18T09:26:23.025Z,12.18
2023-11-18T09:28:54.284Z,12.82
2023-11-18T09:31:23.081Z,12.98
2023-11-18T09:33:55.133Z,13.35
2023-11-18T09:36:24.469Z,12.73
2023-11-18T09:38:53.573Z,12.90
2023-11-18T09:41:22.233Z,12.77
2023-11-18T09:43:54.283Z,13.55
2023-11-18T09:46:25.874Z,12.80
2023-11-18T09:49:00.590Z,11.85
2023-11-18T09:51:34.185Z,12.52
2023-11-18T09:54:02.771Z,11.75
2023-11-18T09:56:39.849Z,11.98
2023-11-18T09:59:17.218Z,11.85
2023-11-18T10:01:48.370Z,11.18
2023-11-18T10:04:19.171Z,12.73
2023-11-18T10:06:54.193Z,12.55
2023-11-18T10:09:29.439Z,13.07
2023-11-18T10:12:07.240Z,12.43
2023-11-18T10:14:35.656Z,11.68
2023-11-18T10:17:08.411Z,12.90
2023-11-18T10:19:52.204Z,12.20
2023-11-18T10:22:28.231Z,11.70
2023-11-18T10:24:56.694Z,13.05
2023-11-18T10:27:28.422Z,12.60
2023-11-18T10:29:59.728Z,13.45
2023-11-18T10:32:29.730Z,12.40
2023-11-18T10:34:58.422Z,14.05
2023-11-18T10:37:33.048Z,12.97
2023-11-18T10:40:07.012Z,13.57
2023-11-18T10:42:35.507Z,12.63
2023-11-18T10:45:04.585Z,13.13
2023-11-18T10:47:37.406Z,12.85
2023-11-18T10:50:06.082Z,13.53
2023-11-18T10:52:42.811Z,13.25
2023-11-18T10:55:13.607Z,13.10
2023-11-18T10:57:44.048Z,12.50
2023-11-18T11:00:16.027Z,12.80
2023-11-18T11:02:45.387Z,12.30
2023-11-18T11:05:19.837Z,12.68
2023-11-18T11:07:52.341Z,11.73
2023-11-18T11:10:26.658Z,12.13
2023-11-18T11:12:59.300Z,11.32
2023-11-18T11:15:41.996Z,10.98
2023-11-18T11:18:24.749Z,12.20
2023-11-18T11:21:04.676Z,11.00
2023-11-18T11:23:45.320Z,10.63
2023-11-18T11:26:21.460Z,10.73
2023-11-18T11:28:55.362Z,10.82
2023-11-18T11:31:25.375Z,10.80
2023-11-18T11:34:00.380Z,10.40
2023-11-18T11:36:34.867Z,10.10
2023-11-18T11:39:04.445Z,9.70
2023-11-18T11:41:35.324Z,10.65
2023-11-18T11:44:03.103Z,10.05
2023-11-18T11:46:36.450Z,9.82
2023-11-18T11:49:09.833Z,9.77
2023-11-18T11:51:42.843Z,9.73
2023-11-18T11:54:17.347Z,9.70
2023-11-18T11:56:48.263Z,9.52
2023-11-18T11:59:18.429Z,9.70
2023-11-18T12:01:48.495Z,9.67
2023-11-18T12:04:24.414Z,9.80
2023-11-18T12:07:05.770Z,9.02
2023-11-18T12:09:45.393Z,9.38
2023-11-18T12:12:20.279Z,9.65
2023-11-18T12:14:54.400Z,9.07
2023-11-18T12:17:25.617Z,10.05
2023-11-18T12:20:00.782Z,9.77
2023-11-18T12:22:31.638Z,9.82
2023-11-18T12:25:55.602Z,9.00
2023-11-18T12:28:28.894Z,9.30
2023-11-18T12:31:07.384Z,9.32
2023-11-18T12:34:03.944Z,9.02
2023-11-18T12:36:59.379Z,8.70
2023-11-18T12:40:14.633Z,9.30
2023-11-18T12:43:01.019Z,8.27
2023-11-18T12:45:46.458Z,8.45
2023-11-18T12:48:17.148Z,8.05
2023-11-18T12:50:47.546Z,7.95
2023-11-18T12:53:19.391Z,7.88
2023-11-18T12:55:49.476Z,8.20
2023-11-18T12:58:19.336Z,8.55
2023-11-18T13:00:48.431Z,8.38
2023-11-18T13:03:19.169Z,8.88
2023-11-18T13:05:47.105Z,8.30
2023-11-18T13:08:17.421Z,8.38
2023-11-18T13:10:46.004Z,8.15
2023-11-18T13:13:19.553Z,7.93
2023-11-18T13:15:51.652Z,7.70
2023-11-18T13:18:21.521Z,8.30
2023-11-18T13:20:59.641Z,7.65
2023-11-18T13:23:28.518Z,7.33
2023-11-18T13:25:57.715Z,8.05
2023-11-18T13:28:27.468Z,6.30
2023-11-18T13:30:56.563Z,6.78
2023-11-18T13:33:25.588Z,6.35
2023-11-18T13:35:54.157Z,7.00
2023-11-18T13:38:21.842Z,7.43
2023-11-18T13:40:50.532Z,6.23
2023-11-18T13:43:18.235Z,6.13
2023-11-18T13:45:47.467Z,5.90
2023-11-18T13:48:18.727Z,6.18
2023-11-18T13:50:47.619Z,5.43
2023-11-18T13:53:16.714Z,5.38
2023-11-18T13:55:45.488Z,5.53
2023-11-18T13:58:13.409Z,5.70
2023-11-18T14:00:43.497Z,5.18
2023-11-18T14:03:13.023Z,5.78
2023-11-18T14:05:45.285Z,5.95
2023-11-18T14:08:20.864Z,5.03
2023-11-18T14:10:58.461Z,5.73
2023-11-18T14:13:32.092Z,4.97
2023-11-18T14:16:01.567Z,4.68
2023-11-18T14:18:29.603Z,4.80
2023-11-18T14:20:59.540Z,4.83
2023-11-18T14:23:27.387Z,5.13
2023-11-18T14:25:55.463Z,4.70
2023-11-18T14:28:27.636Z,5.10
2023-11-18T14:30:55.452Z,4.40
2023-11-18T14:33:23.156Z,4.85
2023-11-18T14:35:51.542Z,5.15
2023-11-18T14:38:20.847Z,4.90
2023-11-18T14:40:49.777Z,4.43
2023-11-18T14:43:17.575Z,4.60
2023-11-18T14:45:45.528Z,4.70
2023-11-18T14:48:14.443Z,4.43
2023-11-18T14:50:42.440Z,4.30
2023-11-18T14:53:10.548Z,4.05
2023-11-18T14:55:40.460Z,4.45
2023-11-18T14:58:08.374Z,4.43
2023-11-18T15:00:36.577Z,3.80
2023-11-18T15:03:04.450Z,4.05
2023-11-18T15:05:32.442Z,4.00
2023-11-18T15:08:02.584Z,3.85
2023-11-18T15:10:30.438Z,3.10
2023-11-18T15:13:02.319Z,3.25
2023-11-18T15:15:36.079Z,3.60
2023-11-18T15:18:06.073Z,3.42
2023-11-18T15:20:35.684Z,3.22
2023-11-18T15:23:03.987Z,3.25
2023-11-18T15:25:32.614Z,3.42
2023-11-18T15:28:02.553Z,3.25
2023-11-18T15:30:30.325Z,2.90
2023-11-18T15:32:58.622Z,3.30
2023-11-18T15:35:26.448Z,2.60
2023-11-18T15:37:54.644Z,3.00
2023-11-18T15:40:26.378Z,2.70
2023-11-18T15:42:55.617Z,2.42
2023-11-18T15:45:25.884Z,2.55
2023-11-18T15:47:54.663Z,2.75
2023-11-18T15:50:22.799Z,2.70
2023-11-18T15:52:53.690Z,2.67
2023-11-18T15:55:22.240Z,2.33
2023-11-18T15:57:54.024Z,2.10
2023-11-18T16:00:25.844Z,2.33
2023-11-18T16:02:58.416Z,2.30
2023-11-18T16:05:29.620Z,1.92
2023-11-18T16:07:58.685Z,2.35
2023-11-18T16:10:28.866Z,2.50
2023-11-18T16:12:59.671Z,2.60
2023-11-18T16:15:29.611Z,2.30
2023-11-18T16:17:58.667Z,2.30
2023-11-18T16:20:28.793Z,2.20
2023-11-18T16:22:58.470Z,2.42
2023-11-18T16:25:29.049Z,2.40
2023-11-18T16:27:58.267Z,2.13
2023-11-18T16:30:28.380Z,2.22
2023-11-18T16:32:58.816Z,2.42
2023-11-18T16:35:27.833Z,2.28
2023-11-18T16:37:56.720Z,2.30
2023-11-18T16:40:25.786Z,0.00
2023-11-18T16:42:57.263Z,0.00
2023-11-18T16:45:26.263Z,0.00
2023-11-18T16:47:56.221Z,0.30
2023-11-18T16:50:28.191Z,0.20
2023-11-18T16:52:57.348Z,0.00
2023-11-18T16:55:26.683Z,0.00
2023-11-18T16:57:55.767Z,0.10
2023-11-18T17:00:24.937Z,0.00
2023-11-18T17:02:59.442Z,0.20
2023-11-18T17:05:31.037Z,0.00
2023-11-18T17:08:01.753Z,0.00
2023-11-18T17:10:30.284Z,0.00
2023-11-18T17:12:59.067Z,0.00
2023-11-18T17:15:27.719Z,0.60
2023-11-18T17:18:02.002Z,0.00
2023-11-18T17:20:32.890Z,0.00
2023-11-18T17:23:00.685Z,0.00
2023-11-18T17:25:28.794Z,0.00
2023-11-18T17:27:56.751Z,0.20
2023-11-18T17:30:24.504Z,0.00
2023-11-18T17:32:54.467Z,0.10
2023-11-18T17:35:23.459Z,0.00
2023-11-18T17:37:52.617Z,0.08
2023-11-18T17:40:23.121Z,0.00
2023-11-18T17:42:54.353Z,0.00
2023-11-18T17:45:22.760Z,0.00
2023-11-18T17:47:50.551Z,0.10
2023-11-18T17:50:19.869Z,0.00
2023-11-18T17:52:48.703Z,0.00
2023-11-18T17:55:17.774Z,0.13
2023-11-18T17:57:46.772Z,0.00
2023-11-18T18:00:20.962Z,0.00
2023-11-18T18:02:50.962Z,0.15
2023-11-18T18:05:19.200Z,0.90
2023-11-18T18:07:47.770Z,0.45
2023-11-18T18:10:17.466Z,0.00
2023-11-18T18:12:48.106Z,0.40
2023-11-18T18:15:16.280Z,1.20
2023-11-18T18:17:44.918Z,0.20
2023-11-18T18:20:14.819Z,0.07
2023-11-18T18:22:43.631Z,1.30
2023-11-18T18:25:13.874Z,0.20
2023-11-18T18:27:43.615Z,0.15
2023-11-18T18:30:13.834Z,0.00
2023-11-18T18:32:41.774Z,0.00
2023-11-18T18:35:11.707Z,0.10
2023-11-18T18:37:39.471Z,0.30
2023-11-18T18:40:08.848Z,0.10
2023-11-18T18:42:36.521Z,0.10
2023-11-18T18:45:07.821Z,0.20
2023-11-18T18:47:35.747Z,0.00
2023-11-18T18:50:03.897Z,0.00
2023-11-18T18:52:31.580Z,0.00
2023-11-18T18:54:59.980Z,0.00
2023-11-18T18:57:27.652Z,0.00
2023-11-18T18:59:55.547Z,0.00
2023-11-18T19:02:26.102Z,0.00
2023-11-18T19:04:53.824Z,0.00
2023-11-18T19:07:22.845Z,0.50
2023-11-18T19:09:51.142Z,0.00
2023-11-18T19:12:18.870Z,0.10
2023-11-18T19:14:46.603Z,0.30
2023-11-18T19:17:15.076Z,0.50
2023-11-18T19:19:44.926Z,0.00
2023-11-18T19:22:13.869Z,0.00
2023-11-18T19:24:43.553Z,0.30
2023-11-18T19:27:13.156Z,0.00
2023-11-18T19:29:43.050Z,0.30
2023-11-18T19:32:12.911Z,0.00
2023-11-18T19:34:40.617Z,0.00
2023-11-18T19:37:12.946Z,0.00
2023-11-18T19:39:41.472Z,0.00
2023-11-18T19:42:10.173Z,0.00
2023-11-18T19:44:39.112Z,0.00
2023-11-18T19:47:07.996Z,0.00
2023-11-18T19:49:58.938Z,0.00
2023-11-18T19:52:28.567Z,0.00
2023-11-18T19:54:56.944Z,0.00
2023-11-18T19:57:24.771Z,0.00
2023-11-18T19:59:53.982Z,0.00
2023-11-18T20:02:23.100Z,0.00
2023-11-18T20:04:51.405Z,0.20
2023-11-18T20:07:19.938Z,0.00
2023-11-18T20:09:49.292Z,0.00
2023-11-18T20:12:17.967Z,0.00
2023-11-18T20:14:45.844Z,0.00
2023-11-18T20:17:15.988Z,0.00
2023-11-18T20:19:43.989Z,0.00
2023-11-18T20:22:11.791Z,0.00
2023-11-18T20:24:40.227Z,0.00
2023-11-18T20:27:10.187Z,0.00
2023-11-18T20:29:37.973Z,0.00
2023-11-18T20:32:06.783Z,0.00
2023-11-18T20:34:39.037Z,0.20
2023-11-18T20:37:07.169Z,0.00
2023-11-18T20:39:55.995Z,0.00
2023-11-18T20:42:25.497Z,0.00
2023-11-18T20:44:54.062Z,0.40
2023-11-18T20:47:23.619Z,0.00
2023-11-18T20:49:52.062Z,0.00
2023-11-18T20:52:19.838Z,0.00
2023-11-18T20:54:47.668Z,0.00
2023-11-18T20:57:17.041Z,0.05
2023-11-18T20:59:46.511Z,0.00
2023-11-18T21:02:18.084Z,0.00
2023-11-18T21:04:46.034Z,0.00
2023-11-18T21:07:13.950Z,0.00
2023-11-18T21:09:43.033Z,0.50
2023-11-18T21:12:18.408Z,0.00
2023-11-18T21:14:50.498Z,0.00
2023-11-18T21:17:20.302Z,0.00
2023-11-18T21:19:48.436Z,0.00
2023-11-18T21:22:20.027Z,0.00
2023-11-18T21:24:47.801Z,0.00
2023-11-18T21:27:16.107Z,0.10
2023-11-18T21:29:44.214Z,0.00
2023-11-18T21:32:14.103Z,0.00
2023-11-18T21:34:43.931Z,0.00
2023-11-18T21:37:12.399Z,0.10
2023-11-18T21:39:40.920Z,0.00
2023-11-18T21:42:09.515Z,0.00
2023-11-18T21:44:38.206Z,0.00
2023-11-18T21:47:07.083Z,0.00
2023-11-18T21:49:36.135Z,0.00
2023-11-18T21:52:04.063Z,0.20
2023-11-18T21:54:32.108Z,0.00
2023-11-18T21:57:00.061Z,0.00
2023-11-18T21:59:27.968Z,0.00
2023-11-18T22:01:57.080Z,0.00
2023-11-18T22:04:24.836Z,0.00
2023-11-18T22:06:55.328Z,0.00
2023-11-18T22:09:24.704Z,0.15
2023-11-18T22:11:53.109Z,0.00
2023-11-18T22:14:20.790Z,0.00
2023-11-18T22:16:49.088Z,0.00
2023-11-18T22:19:17.193Z,0.10
2023-11-18T22:21:44.934Z,0.00
2023-11-18T22:24:16.129Z,0.00
2023-11-18T22:26:44.444Z,0.00
2023-11-18T22:29:13.134Z,0.00
2023-11-18T22:31:40.875Z,0.00
2023-11-18T22:34:09.117Z,0.00
2023-11-18T22:36:36.804Z,0.20
2023-11-18T22:39:05.120Z,0.00
2023-11-18T22:41:34.192Z,0.00
2023-11-18T22:44:02.143Z,0.30
2023-11-18T22:46:29.837Z,0.00
2023-11-18T22:48:58.391Z,0.00
2023-11-18T22:51:26.282Z,0.00
2023-11-18T22:53:56.168Z,0.00
2023-11-18T22:56:24.812Z,0.00
2023-11-18T22:58:55.141Z,0.10
2023-11-18T23:01:24.178Z,0.30
2023-11-18T23:03:53.319Z,0.00
2023-11-18T23:06:25.028Z,0.00
2023-11-18T23:08:55.189Z,0.00
2023-11-18T23:11:23.593Z,0.00
2023-11-18T23:13:54.160Z,0.00
2023-11-18T23:16:24.257Z,0.00
2023-11-18T23:18:54.213Z,0.00
2023-11-18T23:21:21.972Z,0.00
2023-11-18T23:23:53.172Z,0.00
2023-11-18T23:26:21.411Z,0.00
2023-11-18T23:28:49.445Z,0.00
2023-11-18T23:31:17.187Z,0.00
2023-11-18T23:33:47.184Z,0.00
2023-11-18T23:36:17.154Z,0.00
2023-11-18T23:38:49.185Z,0.00
2023-11-18T23:41:17.757Z,0.00
2023-11-18T23:43:46.346Z,0.00
2023-11-18T23:46:14.582Z,0.00
2023-11-18T23:48:43.246Z,0.15
2023-11-18T23:51:13.034Z,0.00
2023-11-18T23:53:40.720Z,0.10
2023-11-18T23:56:10.220Z,0.00
2023-11-18T23:58:37.960Z,0.30
